createdAt,value
2022-12-31T00:01:08.097Z,98807.88
2022-12-31T00:03:36.593Z,98800.84
2022-12-31T00:06:14.870Z,98801.94
2022-12-31T00:08:43.492Z,98798.34
2022-12-31T00:11:13.533Z,98792.28
2022-12-31T00:13:43.167Z,98798.63
2022-12-31T00:16:14.129Z,98788.97
2022-12-31T00:18:45.304Z,98789.25
2022-12-31T00:21:14.274Z,98779.69
2022-12-31T00:23:42.994Z,98782.72
2022-12-31T00:26:13.725Z,98786.03
2022-12-31T00:28:42.924Z,98777.41
2022-12-31T00:31:13.144Z,98779.56
2022-12-31T00:33:41.688Z,98777.50
2022-12-31T00:36:12.263Z,98767.00
2022-12-31T00:38:41.545Z,98776.25
2022-12-31T00:41:10.785Z,98769.38
2022-12-31T00:43:40.939Z,98768.22
2022-12-31T00:46:10.528Z,98772.25
2022-12-31T00:48:39.426Z,98770.75
2022-12-31T00:51:09.866Z,98774.59
2022-12-31T00:53:38.804Z,98766.03
2022-12-31T00:56:09.560Z,98761.97
2022-12-31T00:58:38.139Z,98764.19
2022-12-31T01:01:12.312Z,98752.53
2022-12-31T01:03:41.060Z,98741.34
2022-12-31T01:06:10.089Z,98751.84
2022-12-31T01:08:38.564Z,98755.16
2022-12-31T01:11:23.300Z,98752.13
2022-12-31T01:13:53.763Z,98754.59
2022-12-31T01:16:27.626Z,98751.16
2022-12-31T01:18:56.540Z,98759.16
2022-12-31T01:21:25.563Z,98753.47
2022-12-31T01:23:54.120Z,98757.34
2022-12-31T01:26:23.071Z,98760.69
2022-12-31T01:28:51.593Z,98747.56
2022-12-31T01:31:21.572Z,98755.28
2022-12-31T01:33:53.354Z,98761.34
2022-12-31T01:36:26.739Z,98760.38
2022-12-31T01:38:55.836Z,98758.19
2022-12-31T01:41:27.355Z,98755.69
2022-12-31T01:43:58.823Z,98764.47
2022-12-31T01:46:33.047Z,98756.34
2022-12-31T01:49:10.845Z,98763.66
2022-12-31T01:51:42.101Z,98761.81
2022-12-31T01:54:14.394Z,98763.72
2022-12-31T01:56:44.635Z,98759.69
2022-12-31T01:59:16.074Z,98756.81
2022-12-31T02:01:46.722Z,98766.44
2022-12-31T02:04:17.820Z,98766.19
2022-12-31T02:06:51.765Z,98761.72
2022-12-31T02:09:20.868Z,98762.28
2022-12-31T02:11:49.569Z,98762.72
2022-12-31T02:14:19.115Z,98765.47
2022-12-31T02:16:57.250Z,98755.59
2022-12-31T02:19:56.118Z,98765.13
2022-12-31T02:22:41.983Z,98766.03
2022-12-31T02:25:25.871Z,98766.88
2022-12-31T02:28:04.329Z,98759.50
2022-12-31T02:30:35.845Z,98767.47
2022-12-31T02:33:17.037Z,98763.16
2022-12-31T02:35:50.805Z,98767.25
2022-12-31T02:38:23.694Z,98766.94
2022-12-31T02:40:53.869Z,98759.59
2022-12-31T02:43:22.498Z,98761.91
2022-12-31T02:46:04.367Z,98769.16
2022-12-31T02:48:43.933Z,98774.09
2022-12-31T02:51:32.940Z,98770.13
2022-12-31T02:54:19.353Z,98767.16
2022-12-31T02:57:00.736Z,98774.03
2022-12-31T02:59:52.434Z,98769.63
2022-12-31T03:02:24.611Z,98766.09
2022-12-31T03:04:55.366Z,98763.78
2022-12-31T03:07:26.665Z,98765.72
2022-12-31T03:09:56.008Z,98763.53
2022-12-31T03:12:45.065Z,98765.84
2022-12-31T03:15:21.322Z,98769.19
2022-12-31T03:17:55.317Z,98759.34
2022-12-31T03:20:45.108Z,98760.09
2022-12-31T03:23:16.955Z,98772.63
2022-12-31T03:25:44.415Z,98770.31
2022-12-31T03:28:15.755Z,98758.06
2022-12-31T03:30:47.204Z,98771.53
2022-12-31T03:33:17.578Z,98762.97
2022-12-31T03:35:48.144Z,98765.22
2022-12-31T03:38:17.538Z,98776.00
2022-12-31T03:40:48.511Z,98765.22
2022-12-31T03:43:17.308Z,98768.66
2022-12-31T03:45:45.491Z,98771.25
2022-12-31T03:48:16.545Z,98751.47
2022-12-31T03:50:46.681Z,98768.03
2022-12-31T03:53:15.285Z,98774.00
2022-12-31T03:55:43.864Z,98768.28
2022-12-31T03:58:12.455Z,98766.53
2022-12-31T04:00:40.933Z,98763.63
2022-12-31T04:03:09.572Z,98766.56
2022-12-31T04:05:40.526Z,98778.91
2022-12-31T04:08:10.436Z,98785.53
2022-12-31T04:10:39.013Z,98777.38
2022-12-31T04:13:07.456Z,98785.53
2022-12-31T04:15:35.891Z,98781.81
2022-12-31T04:18:04.510Z,98782.66
2022-12-31T04:20:32.830Z,98789.56
2022-12-31T04:23:01.227Z,98792.59
2022-12-31T04:25:31.091Z,98790.94
2022-12-31T04:27:59.614Z,98797.31
2022-12-31T04:30:28.017Z,98785.06
2022-12-31T04:32:56.554Z,98789.00
2022-12-31T04:35:25.093Z,98800.22
2022-12-31T04:37:53.624Z,98781.75
2022-12-31T04:40:22.119Z,98812.72
2022-12-31T04:42:52.062Z,98813.97
2022-12-31T04:45:20.595Z,98810.75
2022-12-31T04:47:49.067Z,98806.59
2022-12-31T04:50:17.957Z,98810.47
2022-12-31T04:52:46.044Z,98809.75
2022-12-31T04:55:14.470Z,98811.34
2022-12-31T04:57:43.083Z,98811.09
2022-12-31T05:00:13.804Z,98804.09
2022-12-31T05:02:42.539Z,98817.94
2022-12-31T05:05:10.860Z,98826.38
2022-12-31T05:07:39.456Z,98826.66
2022-12-31T05:10:08.905Z,98832.31
2022-12-31T05:12:37.391Z,98836.59
2022-12-31T05:15:06.741Z,98838.44
2022-12-31T05:17:37.401Z,98833.84
2022-12-31T05:20:06.780Z,98846.56
2022-12-31T05:22:35.209Z,98849.81
2022-12-31T05:25:03.705Z,98859.00
2022-12-31T05:27:32.242Z,98865.72
2022-12-31T05:30:00.821Z,98860.91
2022-12-31T05:32:29.281Z,98879.63
2022-12-31T05:34:59.878Z,98877.50
2022-12-31T05:37:30.614Z,98879.69
2022-12-31T05:39:59.378Z,98888.50
2022-12-31T05:42:28.306Z,98887.88
2022-12-31T05:44:57.094Z,98904.91
2022-12-31T05:47:25.553Z,98891.59
2022-12-31T05:49:54.150Z,98900.91
2022-12-31T05:52:24.304Z,98875.66
2022-12-31T05:54:53.787Z,98908.06
2022-12-31T05:57:22.215Z,98915.94
2022-12-31T05:59:53.587Z,98909.25
2022-12-31T06:02:23.066Z,98922.94
2022-12-31T06:04:51.607Z,98929.72
2022-12-31T06:07:20.104Z,98931.34
2022-12-31T06:09:50.216Z,98939.53
2022-12-31T06:12:18.714Z,98941.72
2022-12-31T06:14:51.798Z,98952.81
2022-12-31T06:17:20.711Z,98944.44
2022-12-31T06:19:49.260Z,98953.72
2022-12-31T06:22:18.021Z,98958.72
2022-12-31T06:24:46.131Z,98959.84
2022-12-31T06:27:16.079Z,98969.16
2022-12-31T06:29:45.788Z,98979.84
2022-12-31T06:32:14.129Z,98991.53
2022-12-31T06:34:42.617Z,98986.50
2022-12-31T06:37:11.446Z,98989.16
2022-12-31T06:39:39.942Z,99000.06
2022-12-31T06:42:08.391Z,99006.03
2022-12-31T06:44:38.235Z,99007.22
2022-12-31T06:47:06.756Z,98991.19
2022-12-31T06:49:35.166Z,99005.91
2022-12-31T06:52:03.655Z,99007.91
2022-12-31T06:54:32.248Z,99021.84
2022-12-31T06:57:02.166Z,99015.28
2022-12-31T06:59:31.706Z,99022.03
2022-12-31T07:02:13.603Z,99013.72
2022-12-31T07:05:17.409Z,99026.97
2022-12-31T07:07:56.552Z,99030.28
2022-12-31T07:10:33.761Z,99041.53
2022-12-31T07:13:21.380Z,99037.75
2022-12-31T07:16:03.211Z,99032.78
2022-12-31T07:18:41.989Z,99048.47
2022-12-31T07:21:14.605Z,99054.88
2022-12-31T07:23:44.081Z,99057.06
2022-12-31T07:26:21.734Z,99064.53
2022-12-31T07:28:59.688Z,99055.97
2022-12-31T07:31:41.491Z,99054.19
2022-12-31T07:34:20.857Z,99070.59
2022-12-31T07:37:02.610Z,99068.94
2022-12-31T07:39:40.796Z,99068.56
2022-12-31T07:42:16.581Z,99067.75
2022-12-31T07:44:58.398Z,99077.97
2022-12-31T07:47:28.261Z,99085.34
2022-12-31T07:49:59.127Z,99091.53
2022-12-31T07:52:28.520Z,99080.91
2022-12-31T07:54:56.973Z,99080.94
2022-12-31T07:57:34.517Z,99093.91
2022-12-31T08:00:09.330Z,99097.47
2022-12-31T08:03:03.661Z,99111.25
2022-12-31T08:05:43.922Z,99108.91
2022-12-31T08:08:23.700Z,99098.44
2022-12-31T08:11:02.125Z,99106.59
2022-12-31T08:13:31.128Z,99112.44
2022-12-31T08:16:00.580Z,99108.34
2022-12-31T08:18:29.519Z,99105.34
2022-12-31T08:21:14.945Z,99118.47
2022-12-31T08:23:55.083Z,99117.28
2022-12-31T08:26:36.158Z,99122.00
2022-12-31T08:29:20.672Z,99116.09
2022-12-31T08:31:56.953Z,99114.81
2022-12-31T08:34:31.048Z,99113.66
2022-12-31T08:37:06.124Z,99124.47
2022-12-31T08:39:53.909Z,99115.28
2022-12-31T08:42:31.556Z,99104.81
2022-12-31T08:45:07.411Z,99112.34
2022-12-31T08:47:43.511Z,99117.25
2022-12-31T08:50:16.504Z,99120.66
2022-12-31T08:52:47.514Z,99111.56
2022-12-31T08:55:19.019Z,99117.97
2022-12-31T08:58:01.262Z,99111.56
2022-12-31T09:00:31.567Z,99121.72
2022-12-31T09:03:21.207Z,99136.81
2022-12-31T09:05:58.941Z,99132.25
2022-12-31T09:08:39.575Z,99132.81
2022-12-31T09:11:20.807Z,99141.50
2022-12-31T09:14:20.952Z,99122.00
2022-12-31T09:16:59.152Z,99146.09
2022-12-31T09:19:28.253Z,99139.44
2022-12-31T09:21:57.375Z,99144.81
2022-12-31T09:24:28.023Z,99148.19
2022-12-31T09:27:06.264Z,99135.69
2022-12-31T09:29:53.096Z,99144.28
2022-12-31T09:32:29.114Z,99160.16
2022-12-31T09:35:08.922Z,99150.72
2022-12-31T09:37:43.877Z,99142.91
2022-12-31T09:40:37.108Z,99147.88
2022-12-31T09:43:24.754Z,99146.47
2022-12-31T09:46:21.794Z,99156.41
2022-12-31T09:49:37.908Z,99166.25
2022-12-31T09:52:17.990Z,99186.47
2022-12-31T09:54:56.304Z,99183.88
2022-12-31T09:57:48.555Z,99196.03
2022-12-31T10:00:25.414Z,99186.78
2022-12-31T10:03:27.683Z,99185.63
2022-12-31T10:06:27.963Z,99192.03
2022-12-31T10:09:31.040Z,99156.25
2022-12-31T10:12:19.174Z,99186.97
2022-12-31T10:15:05.110Z,99182.56
2022-12-31T10:17:47.416Z,99178.91
2022-12-31T10:20:31.864Z,99177.09
2022-12-31T10:23:40.833Z,99193.81
2022-12-31T10:26:24.916Z,99211.53
2022-12-31T10:28:57.666Z,99210.75
2022-12-31T10:31:40.270Z,99240.63
2022-12-31T10:34:18.526Z,99250.16
2022-12-31T10:37:12.095Z,99216.84
2022-12-31T10:39:55.566Z,99246.94
2022-12-31T10:42:56.500Z,99254.94
2022-12-31T10:46:07.550Z,99262.22
2022-12-31T10:49:21.195Z,99259.94
2022-12-31T10:52:16.170Z,99264.59
2022-12-31T10:55:17.442Z,99251.00
2022-12-31T10:58:04.749Z,99260.50
2022-12-31T11:00:40.495Z,99261.69
2022-12-31T11:03:48.155Z,99276.47
2022-12-31T11:07:14.981Z,99291.00
2022-12-31T11:10:21.688Z,99286.75
2022-12-31T11:13:41.103Z,99283.72
2022-12-31T11:16:25.535Z,99281.78
2022-12-31T11:19:02.285Z,99276.16
2022-12-31T11:21:49.158Z,99266.28
2022-12-31T11:24:35.709Z,99264.13
2022-12-31T11:27:23.706Z,99261.88
2022-12-31T11:30:07.134Z,99261.19
2022-12-31T11:32:48.512Z,99272.66
2022-12-31T11:35:29.161Z,99288.31
2022-12-31T11:38:06.200Z,99298.38
2022-12-31T11:40:56.249Z,99312.44
2022-12-31T11:43:42.150Z,99314.44
2022-12-31T11:46:41.737Z,99329.53
2022-12-31T11:49:27.866Z,99324.22
2022-12-31T11:52:21.151Z,99316.88
2022-12-31T11:55:25.193Z,99317.38
2022-12-31T11:58:01.110Z,99336.59
2022-12-31T12:00:57.667Z,99337.09
2022-12-31T12:03:29.345Z,99339.69
2022-12-31T12:06:01.081Z,99350.53
2022-12-31T12:08:33.987Z,99350.75
2022-12-31T12:11:06.917Z,99348.75
2022-12-31T12:13:36.899Z,99336.25
2022-12-31T12:16:09.321Z,99349.94
2022-12-31T12:18:43.740Z,99352.09
2022-12-31T12:21:15.617Z,99346.69
2022-12-31T12:23:56.086Z,99361.50
2022-12-31T12:26:30.677Z,99358.88
2022-12-31T12:29:01.402Z,99357.91
2022-12-31T12:31:36.623Z,99365.50
2022-12-31T12:34:27.939Z,99367.31
2022-12-31T12:37:23.173Z,99350.91
2022-12-31T12:39:57.994Z,99367.22
2022-12-31T12:42:26.664Z,99365.66
2022-12-31T12:45:08.666Z,99354.00
2022-12-31T12:47:38.873Z,99382.97
2022-12-31T12:50:17.101Z,99378.53
2022-12-31T12:53:08.315Z,99345.19
2022-12-31T12:55:45.667Z,99377.66
2022-12-31T12:58:27.659Z,99386.75
2022-12-31T13:01:08.504Z,99380.19
2022-12-31T13:07:13.543Z,99374.72
2022-12-31T13:10:03.875Z,99332.97
2022-12-31T13:13:21.683Z,99385.31
2022-12-31T13:15:39.183Z,99403.97
2022-12-31T13:18:20.645Z,99393.66
2022-12-31T13:21:28.277Z,99378.88
2022-12-31T13:24:05.145Z,99378.19
2022-12-31T13:26:42.690Z,99389.84
2022-12-31T13:29:17.172Z,99376.97
2022-12-31T13:31:47.274Z,99385.44
2022-12-31T13:34:19.793Z,99371.69
2022-12-31T13:36:56.041Z,99393.78
2022-12-31T13:39:30.328Z,99397.91
2022-12-31T13:42:05.518Z,99403.88
2022-12-31T13:44:39.359Z,99398.53
2022-12-31T13:47:14.650Z,99407.16
2022-12-31T13:49:47.755Z,99399.50
2022-12-31T13:52:28.795Z,99408.22
2022-12-31T13:55:05.688Z,99404.56
2022-12-31T13:57:44.121Z,99407.38
2022-12-31T14:00:23.057Z,99403.00
2022-12-31T14:03:03.094Z,99396.97
2022-12-31T14:05:35.678Z,99384.50
2022-12-31T14:08:07.731Z,99391.84
2022-12-31T14:10:47.057Z,99387.56
2022-12-31T14:13:34.981Z,99413.13
2022-12-31T14:16:15.756Z,99422.03
2022-12-31T14:18:50.395Z,99411.31
2022-12-31T14:21:25.510Z,99417.16
2022-12-31T14:24:07.153Z,99408.28
2022-12-31T14:26:46.564Z,99385.88
2022-12-31T14:29:29.857Z,99391.56
2022-12-31T14:32:33.571Z,99412.88
2022-12-31T14:35:17.547Z,99412.09
2022-12-31T14:37:55.896Z,99410.88
2022-12-31T14:40:30.309Z,99407.66
2022-12-31T14:43:13.559Z,99405.25
2022-12-31T14:45:52.961Z,99400.88
2022-12-31T14:48:37.668Z,99387.75
2022-12-31T14:51:07.601Z,99400.63
2022-12-31T14:53:36.611Z,99398.34
2022-12-31T14:56:08.972Z,99386.13
2022-12-31T14:58:39.629Z,99366.38
2022-12-31T15:01:22.755Z,99398.28
2022-12-31T15:03:52.152Z,99391.19
2022-12-31T15:06:42.631Z,99397.66
2022-12-31T15:09:38.797Z,99388.66
2022-12-31T15:12:24.941Z,99400.19
2022-12-31T15:15:09.685Z,99391.56
2022-12-31T15:17:51.109Z,99372.41
2022-12-31T15:20:41.412Z,99402.44
2022-12-31T15:23:21.281Z,99398.13
2022-12-31T15:25:53.021Z,99395.59
2022-12-31T15:28:35.226Z,99389.66
2022-12-31T15:31:11.763Z,99396.16
2022-12-31T15:33:56.754Z,99399.25
2022-12-31T15:36:27.773Z,99398.06
2022-12-31T15:39:24.497Z,99395.88
2022-12-31T15:42:36.613Z,99389.81
2022-12-31T15:45:01.477Z,99399.84
2022-12-31T15:47:39.320Z,99407.13
2022-12-31T15:50:13.859Z,99406.19
2022-12-31T15:52:45.252Z,99411.53
2022-12-31T15:55:26.570Z,99406.88
2022-12-31T15:57:57.598Z,99407.94
2022-12-31T16:00:36.486Z,99404.13
2022-12-31T16:03:06.215Z,99392.69
2022-12-31T16:05:36.988Z,99403.19
2022-12-31T16:08:07.221Z,99412.00
2022-12-31T16:10:37.423Z,99414.03
2022-12-31T16:13:06.806Z,99405.53
2022-12-31T16:15:38.811Z,99370.97
2022-12-31T16:18:18.960Z,99393.50
2022-12-31T16:20:54.890Z,99390.03
2022-12-31T16:23:26.721Z,99406.50
2022-12-31T16:25:59.986Z,99399.13
2022-12-31T16:28:32.417Z,99417.00
2022-12-31T16:31:06.032Z,99413.31
2022-12-31T16:33:35.636Z,99405.19
2022-12-31T16:36:05.420Z,99400.56
2022-12-31T16:38:36.060Z,99392.09
2022-12-31T16:41:17.806Z,99399.31
2022-12-31T16:43:48.030Z,99402.44
2022-12-31T16:46:23.150Z,99394.19
2022-12-31T16:48:56.128Z,99390.47
2022-12-31T16:51:28.964Z,99384.47
2022-12-31T16:53:58.840Z,99393.06
2022-12-31T16:56:33.187Z,99375.66
2022-12-31T16:59:04.799Z,99383.13
2022-12-31T17:01:39.256Z,99385.75
2022-12-31T17:04:12.646Z,99383.91
2022-12-31T17:06:41.421Z,99381.25
2022-12-31T17:09:14.652Z,99383.75
2022-12-31T17:11:52.045Z,99375.44
2022-12-31T17:14:23.160Z,99375.31
2022-12-31T17:17:03.138Z,99370.81
2022-12-31T17:19:39.798Z,99370.41
2022-12-31T17:22:36.958Z,99361.25
2022-12-31T17:25:09.379Z,99363.66
2022-12-31T17:27:38.386Z,99361.63
2022-12-31T17:30:22.219Z,99361.38
2022-12-31T17:33:00.129Z,99372.28
2022-12-31T17:35:32.335Z,99382.09
2022-12-31T17:38:32.231Z,99380.69
2022-12-31T17:41:16.972Z,99369.84
2022-12-31T17:43:46.091Z,99378.66
2022-12-31T17:46:17.147Z,99372.81
2022-12-31T17:48:53.490Z,99372.69
2022-12-31T17:51:24.428Z,99373.88
2022-12-31T17:53:53.919Z,99371.97
2022-12-31T17:56:23.334Z,99364.78
2022-12-31T17:58:53.911Z,99362.91
2022-12-31T18:01:25.403Z,99366.13
2022-12-31T18:03:57.801Z,99359.59
2022-12-31T18:06:31.295Z,99356.25
2022-12-31T18:09:02.100Z,99356.00
2022-12-31T18:11:34.531Z,99351.25
2022-12-31T18:14:09.129Z,99356.22
2022-12-31T18:16:38.584Z,99341.84
2022-12-31T18:19:37.971Z,99352.31
2022-12-31T18:22:11.257Z,99355.44
2022-12-31T18:24:43.239Z,99345.53
2022-12-31T18:27:18.805Z,99349.25
2022-12-31T18:29:50.504Z,99341.13
2022-12-31T18:32:32.319Z,99308.63
2022-12-31T18:36:07.095Z,99291.09
2022-12-31T18:38:24.427Z,99306.03
2022-12-31T18:40:58.439Z,99280.91
2022-12-31T18:43:29.673Z,99336.38
2022-12-31T18:46:02.672Z,99322.88
2022-12-31T18:48:35.570Z,99299.09
2022-12-31T18:51:10.649Z,99306.94
2022-12-31T18:53:43.217Z,99302.34
2022-12-31T18:56:15.474Z,99301.84
2022-12-31T18:58:46.341Z,99291.47
2022-12-31T19:01:35.404Z,99298.75
2022-12-31T19:04:09.329Z,99307.56
2022-12-31T19:06:41.036Z,99295.66
2022-12-31T19:09:37.704Z,99310.50
2022-12-31T19:12:06.600Z,99298.63
2022-12-31T19:14:37.974Z,99305.78
2022-12-31T19:19:36.333Z,99302.66
2022-12-31T19:22:07.874Z,99285.41
2022-12-31T19:24:37.650Z,99291.69
2022-12-31T19:27:06.818Z,99288.84
2022-12-31T19:29:36.305Z,99281.44
2022-12-31T19:32:08.174Z,99276.59
2022-12-31T19:34:39.491Z,99278.59
2022-12-31T19:37:14.066Z,99271.09
2022-12-31T19:39:44.965Z,99258.63
2022-12-31T19:42:17.055Z,99264.38
2022-12-31T19:44:48.732Z,99265.16
2022-12-31T19:47:19.960Z,99244.56
2022-12-31T19:49:48.761Z,99237.75
2022-12-31T19:52:19.291Z,99245.78
2022-12-31T19:54:48.382Z,99252.81
2022-12-31T19:57:21.000Z,99228.53
2022-12-31T19:59:53.074Z,99239.72
2022-12-31T20:02:22.959Z,99232.22
2022-12-31T20:04:52.748Z,99233.66
2022-12-31T20:07:27.259Z,99231.19
2022-12-31T20:09:57.251Z,99232.59
2022-12-31T20:12:27.252Z,99232.69
2022-12-31T20:14:56.910Z,99239.72
2022-12-31T20:17:28.015Z,99233.88
2022-12-31T20:19:57.684Z,99226.16
2022-12-31T20:22:28.215Z,99226.72
2022-12-31T20:24:58.617Z,99237.22
2022-12-31T20:27:28.536Z,99237.81
2022-12-31T20:30:02.063Z,99225.28
2022-12-31T20:32:33.206Z,99220.09
2022-12-31T20:35:04.384Z,99212.22
2022-12-31T20:37:36.522Z,99210.84
2022-12-31T20:40:08.748Z,99203.47
2022-12-31T20:42:40.534Z,99210.22
2022-12-31T20:45:12.667Z,99209.59
2022-12-31T20:47:42.835Z,99221.00
2022-12-31T20:50:12.465Z,99217.25
2022-12-31T20:52:44.010Z,99219.66
2022-12-31T20:55:14.200Z,99212.25
2022-12-31T20:57:42.745Z,99192.41
2022-12-31T21:00:15.006Z,99218.06
2022-12-31T21:02:46.616Z,99211.00
2022-12-31T21:05:18.347Z,99188.03
2022-12-31T21:07:48.437Z,99182.00
2022-12-31T21:10:17.152Z,99181.88
2022-12-31T21:12:44.652Z,99169.47
2022-12-31T21:15:14.455Z,99151.91
2022-12-31T21:17:43.028Z,99145.88
2022-12-31T21:20:12.462Z,99132.75
2022-12-31T21:22:41.004Z,99114.69
2022-12-31T21:25:12.133Z,99103.47
2022-12-31T21:27:41.178Z,99101.59
2022-12-31T21:30:19.874Z,99095.53
2022-12-31T21:32:49.800Z,99111.63
2022-12-31T21:38:08.667Z,99094.00
2022-12-31T21:40:41.574Z,99083.00
2022-12-31T21:43:10.517Z,99105.53
2022-12-31T21:45:39.262Z,99120.94
2022-12-31T21:48:25.080Z,99118.25
2022-12-31T21:50:55.553Z,99122.31
2022-12-31T21:53:34.088Z,99110.16
2022-12-31T21:56:11.774Z,99085.06
2022-12-31T21:58:42.433Z,99090.44
2022-12-31T22:01:36.674Z,99079.47
2022-12-31T22:04:05.880Z,99100.56
2022-12-31T22:06:37.923Z,99094.91
2022-12-31T22:09:07.351Z,99086.78
2022-12-31T22:11:37.250Z,99069.81
2022-12-31T22:14:26.518Z,99065.72
2022-12-31T22:16:54.995Z,99061.28
2022-12-31T22:19:24.666Z,99054.03
2022-12-31T22:21:53.629Z,99059.91
2022-12-31T22:24:22.506Z,99066.66
2022-12-31T22:26:55.825Z,99064.44
2022-12-31T22:29:26.110Z,99066.56
2022-12-31T22:32:00.907Z,99051.88
2022-12-31T22:34:30.897Z,99057.81
2022-12-31T22:37:14.385Z,99051.78
2022-12-31T22:39:48.874Z,99066.44
2022-12-31T22:42:22.000Z,99058.31
2022-12-31T22:44:55.369Z,99045.72
2022-12-31T22:47:24.034Z,99039.56
2022-12-31T22:49:52.928Z,99029.03
2022-12-31T22:52:21.395Z,99024.94
2022-12-31T22:54:50.222Z,99028.03
2022-12-31T22:57:26.070Z,99012.69
2022-12-31T22:59:56.954Z,99016.41
2022-12-31T23:02:25.849Z,99018.19
2022-12-31T23:04:54.102Z,99009.69
2022-12-31T23:07:43.075Z,99005.44
2022-12-31T23:10:30.241Z,98988.31
2022-12-31T23:13:20.164Z,98995.00
2022-12-31T23:16:07.903Z,99002.50
2022-12-31T23:18:54.125Z,98983.09
2022-12-31T23:21:40.254Z,98988.34
2022-12-31T23:24:18.012Z,98980.38
2022-12-31T23:26:48.841Z,98970.59
2022-12-31T23:29:17.313Z,98957.44
2022-12-31T23:31:47.397Z,98960.69
2022-12-31T23:34:16.704Z,98959.59
2022-12-31T23:36:45.227Z,98965.19
2022-12-31T23:39:14.053Z,98954.03
2022-12-31T23:41:42.613Z,98947.19
2022-12-31T23:44:12.010Z,98946.59
2022-12-31T23:46:40.742Z,98946.59
2022-12-31T23:49:10.923Z,98947.00
2022-12-31T23:51:40.410Z,98962.06
2022-12-31T23:54:09.303Z,98953.69
2022-12-31T23:56:37.948Z,98949.34
2022-12-31T23:59:06.479Z,98944.28
